In Rescue
 
Open Full Screen Window  High Contrast Mode
Wind Gusting 00 knots
05
October 30, 2020 1:16 AM EDT
Weather Information
Wind Direction
  360 °
Wind Speed
  05 kt (6 mph)
Wind Gust
  00 kt (0 mph)
Altimeter
30.05 in
Visibility
10 SM
Temperature
02° C
36° F
Dewpoint
-02° C
28° F
Humidity
75%
Sky Condition
Overcast @ 2,100 ft
MVFR

METAR KFFX 300516Z AUTO 36005KT 10SM OVC021 02/M02 A3005 RMK AO2 T00211018

FAA Disclaimer: The data displayed is for advisory purposes only and is not to be used for flight planning or operations.